createdAt,value
2019-01-28T00:00:39.717Z,99.99
2019-01-28T00:01:39.711Z,99.99
2019-01-28T00:02:39.692Z,99.99
2019-01-28T00:03:39.445Z,99.99
2019-01-28T00:04:39.676Z,99.99
2019-01-28T00:05:39.674Z,99.99
2019-01-28T00:06:39.402Z,99.99
2019-01-28T00:07:39.646Z,99.99
2019-01-28T00:08:39.644Z,99.99
2019-01-28T00:09:39.639Z,99.99
2019-01-28T00:10:39.619Z,99.99
2019-01-28T00:11:39.607Z,99.99
2019-01-28T00:12:39.624Z,99.99
2019-01-28T00:13:39.334Z,99.99
2019-01-28T00:14:39.608Z,99.99
2019-01-28T00:15:39.591Z,99.99
2019-01-28T00:16:39.564Z,99.99
2019-01-28T00:17:39.557Z,99.99
2019-01-28T00:18:39.550Z,99.99
2019-01-28T00:19:39.526Z,99.99
2019-01-28T00:20:39.523Z,99.99
2019-01-28T00:21:39.506Z,99.99
2019-01-28T00:22:39.495Z,99.99
2019-01-28T00:23:39.485Z,99.99
2019-01-28T00:24:39.481Z,99.99
2019-01-28T00:25:39.216Z,99.99
2019-01-28T00:26:39.453Z,99.99
2019-01-28T00:27:39.448Z,99.99
2019-01-28T00:28:39.434Z,99.99
2019-01-28T00:29:39.434Z,99.99
2019-01-28T00:30:39.166Z,99.99
2019-01-28T00:31:39.163Z,99.99
2019-01-28T00:32:39.149Z,99.99
2019-01-28T00:33:39.404Z,99.99
2019-01-28T00:34:39.431Z,99.99
2019-01-28T00:35:39.371Z,99.99
2019-01-28T00:36:39.111Z,99.99
2019-01-28T00:37:39.102Z,99.99
2019-01-28T00:38:39.342Z,99.99
2019-01-28T00:39:39.341Z,99.99
2019-01-28T00:40:39.328Z,99.99
2019-01-28T00:41:39.066Z,99.99
2019-01-28T00:42:39.120Z,99.99
2019-01-28T00:43:39.046Z,99.99
2019-01-28T00:44:39.350Z,99.99
2019-01-28T00:45:39.278Z,99.99
2019-01-28T00:46:39.020Z,99.99
2019-01-28T00:47:39.262Z,99.99
2019-01-28T00:48:39.006Z,99.99
2019-01-28T00:49:39.233Z,99.99
2019-01-28T00:50:39.226Z,99.99
2019-01-28T00:51:38.970Z,99.99
2019-01-28T00:52:39.209Z,99.99
2019-01-28T00:53:39.198Z,99.99
2019-01-28T00:54:39.187Z,99.99
2019-01-28T00:55:38.928Z,99.99
2019-01-28T00:56:39.172Z,99.99
2019-01-28T00:57:39.153Z,99.99
2019-01-28T00:58:38.899Z,99.99
2019-01-28T00:59:38.902Z,99.99
2019-01-28T01:00:39.129Z,99.99
2019-01-28T01:01:39.166Z,99.99
2019-01-28T01:02:39.115Z,99.99
2019-01-28T01:03:39.096Z,99.99
2019-01-28T01:04:39.089Z,99.99
2019-01-28T01:05:39.090Z,99.99
2019-01-28T01:06:38.835Z,99.99
2019-01-28T01:07:38.808Z,99.99
2019-01-28T01:08:38.804Z,99.99
2019-01-28T01:09:39.047Z,99.99
2019-01-28T01:10:38.776Z,99.99
2019-01-28T01:11:39.023Z,99.99
2019-01-28T01:12:38.768Z,99.99
2019-01-28T01:13:38.749Z,99.99
2019-01-28T01:14:38.997Z,99.99
2019-01-28T01:15:38.972Z,99.99
2019-01-28T01:16:38.716Z,99.99
2019-01-28T01:17:38.966Z,99.99
2019-01-28T01:18:38.952Z,99.99
2019-01-28T01:19:38.944Z,99.99
2019-01-28T01:20:38.682Z,99.99
2019-01-28T01:21:38.922Z,99.99
2019-01-28T01:22:38.655Z,99.99
2019-01-28T01:23:38.651Z,99.99
2019-01-28T01:24:38.890Z,99.99
2019-01-28T01:25:38.880Z,99.99
2019-01-28T01:26:38.863Z,99.99
2019-01-28T01:27:38.852Z,99.99
2019-01-28T01:28:38.849Z,99.99
2019-01-28T01:29:38.838Z,99.99
2019-01-28T01:30:38.859Z,99.99
2019-01-28T01:31:38.823Z,99.99
2019-01-28T01:32:38.561Z,99.99
2019-01-28T01:33:38.792Z,99.99
2019-01-28T01:34:38.796Z,99.99
2019-01-28T01:35:38.526Z,99.99
2019-01-28T01:36:38.513Z,99.99
2019-01-28T01:37:38.761Z,99.99
2019-01-28T01:38:38.507Z,99.99
2019-01-28T01:39:38.751Z,99.99
2019-01-28T01:40:38.484Z,99.99
2019-01-28T01:41:38.712Z,99.99
2019-01-28T01:42:38.458Z,99.99
2019-01-28T01:43:38.442Z,99.99
2019-01-28T01:44:38.437Z,99.99
2019-01-28T01:45:38.675Z,99.99
2019-01-28T01:46:38.666Z,99.99
2019-01-28T01:47:38.661Z,99.99
2019-01-28T01:48:38.392Z,99.99
2019-01-28T01:49:38.636Z,99.99
2019-01-28T01:50:38.621Z,99.99
2019-01-28T01:51:38.353Z,99.99
2019-01-28T01:52:38.595Z,99.99
2019-01-28T01:53:38.341Z,99.99
2019-01-28T01:54:38.576Z,99.99
2019-01-28T01:55:38.585Z,99.99
2019-01-28T01:56:38.558Z,99.99
2019-01-28T01:57:38.296Z,99.99
2019-01-28T01:58:38.539Z,99.99
2019-01-28T01:59:38.549Z,99.99
2019-01-28T02:00:38.532Z,99.99
2019-01-28T02:01:38.507Z,99.99
2019-01-28T02:02:38.246Z,99.99
2019-01-28T02:03:38.493Z,99.99
2019-01-28T02:04:38.250Z,99.99
2019-01-28T02:05:38.466Z,99.99
2019-01-28T02:06:38.454Z,99.99
2019-01-28T02:07:38.451Z,99.99
2019-01-28T02:08:38.181Z,99.99
2019-01-28T02:09:38.183Z,99.99
2019-01-28T02:10:38.402Z,99.99
2019-01-28T02:11:38.408Z,99.99
2019-01-28T02:12:38.140Z,99.99
2019-01-28T02:13:38.380Z,99.99
2019-01-28T02:14:38.394Z,99.99
2019-01-28T02:15:38.371Z,99.99
2019-01-28T02:16:38.096Z,99.99
2019-01-28T02:17:38.332Z,99.99
2019-01-28T02:18:38.083Z,99.99
2019-01-28T02:19:38.314Z,99.99
2019-01-28T02:20:38.312Z,99.99
2019-01-28T02:21:38.300Z,99.99
2019-01-28T02:22:38.282Z,99.99
2019-01-28T02:23:38.212Z,99.99
2019-01-28T02:24:38.016Z,99.99
2019-01-28T02:25:38.023Z,99.99
2019-01-28T02:26:38.253Z,99.99
2019-01-28T02:27:38.251Z,99.99
2019-01-28T02:28:37.973Z,99.99
2019-01-28T02:29:38.213Z,99.99
2019-01-28T02:30:38.199Z,99.99
2019-01-28T02:31:38.210Z,99.99
2019-01-28T02:32:38.167Z,99.99
2019-01-28T02:33:38.177Z,99.99
2019-01-28T02:34:38.151Z,99.99
2019-01-28T02:35:38.444Z,99.99
2019-01-28T02:36:38.133Z,99.99
2019-01-28T02:37:38.133Z,99.99
2019-01-28T02:38:37.873Z,99.99
2019-01-28T02:39:38.107Z,99.99
2019-01-28T02:40:38.102Z,99.99
2019-01-28T02:41:38.078Z,99.99
2019-01-28T02:42:37.830Z,99.99
2019-01-28T02:43:37.808Z,99.99
2019-01-28T02:44:37.795Z,99.99
2019-01-28T02:45:38.046Z,99.99
2019-01-28T02:46:37.769Z,99.99
2019-01-28T02:47:37.777Z,99.99
2019-01-28T02:48:37.761Z,99.99
2019-01-28T02:49:37.735Z,99.99
2019-01-28T02:50:37.983Z,99.99
2019-01-28T02:51:37.975Z,99.99
2019-01-28T02:52:37.705Z,99.99
2019-01-28T02:53:37.953Z,99.99
2019-01-28T02:54:37.944Z,99.99
2019-01-28T02:55:37.671Z,99.99
2019-01-28T02:56:37.910Z,99.99
2019-01-28T02:57:37.904Z,99.99
2019-01-28T02:58:37.640Z,99.99
2019-01-28T02:59:37.892Z,99.99
2019-01-28T03:00:37.631Z,99.99
2019-01-28T03:01:37.866Z,99.99
2019-01-28T03:02:37.851Z,99.99
2019-01-28T03:03:37.832Z,99.99
2019-01-28T03:04:37.572Z,99.99
2019-01-28T03:05:38.622Z,99.99
2019-01-28T03:06:37.548Z,99.99
2019-01-28T03:07:37.788Z,99.99
2019-01-28T03:08:37.783Z,99.99
2019-01-28T03:09:37.512Z,99.99
2019-01-28T03:10:37.752Z,99.99
2019-01-28T03:11:37.775Z,99.99
2019-01-28T03:12:37.489Z,99.99
2019-01-28T03:13:37.717Z,99.99
2019-01-28T03:14:37.698Z,99.99
2019-01-28T03:15:37.440Z,99.99
2019-01-28T03:16:37.694Z,99.99
2019-01-28T03:17:37.678Z,99.99
2019-01-28T03:18:37.660Z,99.99
2019-01-28T03:19:37.652Z,99.99
2019-01-28T03:20:37.390Z,99.99
2019-01-28T03:21:37.629Z,99.99
2019-01-28T03:22:37.614Z,99.99
2019-01-28T03:23:37.602Z,99.99
2019-01-28T03:24:37.598Z,99.99
2019-01-28T03:25:37.576Z,99.99
2019-01-28T03:26:37.573Z,99.99
2019-01-28T03:27:37.566Z,99.99
2019-01-28T03:28:37.548Z,99.99
2019-01-28T03:29:37.537Z,99.99
2019-01-28T03:30:37.531Z,99.99
2019-01-28T03:31:37.534Z,99.99
2019-01-28T03:32:37.511Z,99.99
2019-01-28T03:33:37.509Z,99.99
2019-01-28T03:34:37.478Z,99.99
2019-01-28T03:35:37.494Z,99.99
2019-01-28T03:36:37.519Z,99.99
2019-01-28T03:37:37.472Z,99.99
2019-01-28T03:38:37.205Z,99.99
2019-01-28T03:39:37.430Z,99.99
2019-01-28T03:40:37.170Z,99.99
2019-01-28T03:41:37.156Z,99.99
2019-01-28T03:42:37.150Z,99.99
2019-01-28T03:43:37.135Z,99.99
2019-01-28T03:44:37.373Z,99.99
2019-01-28T03:45:37.366Z,99.99
2019-01-28T03:46:37.367Z,99.99
2019-01-28T03:47:37.342Z,99.99
2019-01-28T03:48:37.354Z,99.99
2019-01-28T03:49:37.075Z,99.99
2019-01-28T03:50:37.073Z,99.99
2019-01-28T03:51:37.050Z,99.99
2019-01-28T03:52:37.292Z,99.99
2019-01-28T03:53:37.048Z,99.99
2019-01-28T03:54:37.055Z,99.99
2019-01-28T03:55:37.013Z,99.99
2019-01-28T03:56:37.241Z,99.99
2019-01-28T03:57:37.242Z,99.99
2019-01-28T03:58:37.218Z,99.99
2019-01-28T03:59:37.223Z,99.99
2019-01-28T04:00:37.207Z,99.99
2019-01-28T04:01:37.184Z,99.99
2019-01-28T04:02:37.196Z,99.99
2019-01-28T04:03:36.914Z,99.99
2019-01-28T04:04:37.145Z,99.99
2019-01-28T04:05:37.137Z,99.99
2019-01-28T04:06:37.125Z,99.99
2019-01-28T04:07:37.120Z,99.99
2019-01-28T04:08:37.103Z,99.99
2019-01-28T04:09:36.849Z,99.99
2019-01-28T04:10:36.842Z,99.99
2019-01-28T04:11:37.066Z,99.99
2019-01-28T04:12:36.812Z,99.99
2019-01-28T04:13:36.809Z,99.99
2019-01-28T04:14:37.048Z,99.99
2019-01-28T04:15:36.782Z,99.99
2019-01-28T04:16:37.011Z,99.99
2019-01-28T04:17:36.756Z,99.99
2019-01-28T04:18:36.994Z,99.99
2019-01-28T04:19:36.732Z,99.99
2019-01-28T04:20:36.723Z,99.99
2019-01-28T04:21:36.710Z,99.99
2019-01-28T04:22:36.969Z,99.99
2019-01-28T04:23:36.692Z,99.99
2019-01-28T04:24:36.922Z,99.99
2019-01-28T04:25:36.920Z,99.99
2019-01-28T04:26:36.910Z,99.99
2019-01-28T04:27:36.687Z,99.99
2019-01-28T04:28:36.886Z,99.99
2019-01-28T04:29:36.626Z,99.99
2019-01-28T04:30:36.883Z,99.99
2019-01-28T04:31:36.863Z,99.99
2019-01-28T04:32:36.851Z,99.99
2019-01-28T04:33:36.826Z,99.99
2019-01-28T04:34:36.814Z,99.99
2019-01-28T04:35:36.820Z,99.99
2019-01-28T04:36:36.803Z,99.99
2019-01-28T04:37:36.784Z,99.99
2019-01-28T04:38:36.551Z,99.99
2019-01-28T04:39:36.542Z,99.99
2019-01-28T04:40:36.506Z,99.99
2019-01-28T04:41:36.495Z,99.99
2019-01-28T04:42:36.736Z,99.99
2019-01-28T04:43:36.476Z,99.99
2019-01-28T04:44:36.779Z,99.99
2019-01-28T04:45:36.714Z,99.99
2019-01-28T04:46:36.453Z,99.99
2019-01-28T04:47:36.679Z,99.99
2019-01-28T04:48:36.427Z,99.99
2019-01-28T04:49:36.654Z,99.99
2019-01-28T04:50:36.653Z,99.99
2019-01-28T04:51:36.635Z,99.99
2019-01-28T04:52:36.639Z,99.99
2019-01-28T04:53:36.598Z,99.99
2019-01-28T04:54:36.590Z,99.99
2019-01-28T04:55:36.596Z,99.99
2019-01-28T04:56:36.343Z,99.99
2019-01-28T04:57:36.312Z,99.99
2019-01-28T04:58:36.550Z,99.99
2019-01-28T04:59:36.571Z,99.99
2019-01-28T05:00:36.275Z,99.99
2019-01-28T05:01:36.515Z,99.99
2019-01-28T05:02:36.500Z,99.99
2019-01-28T05:03:36.495Z,99.99
2019-01-28T05:04:36.235Z,99.99
2019-01-28T05:05:36.473Z,99.99
2019-01-28T05:06:36.766Z,99.99
2019-01-28T05:07:36.456Z,99.99
2019-01-28T05:08:36.447Z,99.99
2019-01-28T05:09:36.430Z,99.99
2019-01-28T05:10:36.168Z,99.99
2019-01-28T05:11:36.411Z,99.99
2019-01-28T05:12:36.398Z,99.99
2019-01-28T05:13:36.394Z,99.99
2019-01-28T05:14:36.389Z,99.99
2019-01-28T05:15:36.116Z,99.99
2019-01-28T05:16:36.373Z,99.99
2019-01-28T05:17:36.364Z,99.99
2019-01-28T05:18:36.102Z,99.99
2019-01-28T05:19:36.109Z,99.99
2019-01-28T05:20:36.307Z,99.99
2019-01-28T05:21:37.111Z,99.99
2019-01-28T05:22:36.293Z,99.99
2019-01-28T05:23:36.287Z,99.99
2019-01-28T05:24:36.265Z,99.99
2019-01-28T05:25:36.053Z,99.99
2019-01-28T05:26:36.053Z,99.99
2019-01-28T05:27:36.253Z,99.99
2019-01-28T05:28:35.979Z,99.99
2019-01-28T05:29:36.223Z,99.99
2019-01-28T05:30:36.202Z,99.99
2019-01-28T05:31:36.193Z,99.99
2019-01-28T05:32:36.189Z,99.99
2019-01-28T05:33:36.177Z,99.99
2019-01-28T05:34:35.915Z,99.99
2019-01-28T05:35:36.152Z,99.99
2019-01-28T05:36:36.137Z,99.99
2019-01-28T05:37:35.892Z,99.99
2019-01-28T05:38:36.116Z,99.99
2019-01-28T05:39:36.109Z,99.99
2019-01-28T05:40:35.849Z,99.99
2019-01-28T05:41:36.084Z,99.99
2019-01-28T05:42:35.827Z,99.99
2019-01-28T05:43:36.060Z,99.99
2019-01-28T05:44:36.053Z,99.99
2019-01-28T05:45:36.054Z,99.99
2019-01-28T05:46:36.031Z,99.99
2019-01-28T05:47:35.798Z,99.99
2019-01-28T05:48:36.008Z,99.99
2019-01-28T05:49:35.999Z,99.99
2019-01-28T05:50:36.016Z,99.99
2019-01-28T05:51:35.977Z,99.99
2019-01-28T05:52:35.979Z,99.99
2019-01-28T05:53:35.966Z,99.99
2019-01-28T05:54:35.701Z,99.99
2019-01-28T05:55:36.006Z,99.99
2019-01-28T05:56:35.924Z,99.99
2019-01-28T05:57:35.961Z,99.99
2019-01-28T05:58:35.910Z,99.99
2019-01-28T05:59:35.907Z,99.99
2019-01-28T06:00:35.893Z,99.99
2019-01-28T06:01:35.645Z,99.99
2019-01-28T06:02:35.618Z,99.99
2019-01-28T06:03:35.882Z,99.99
2019-01-28T06:04:35.850Z,99.99
2019-01-28T06:05:35.862Z,99.99
2019-01-28T06:06:35.829Z,99.99
2019-01-28T06:07:35.814Z,99.99
2019-01-28T06:08:35.812Z,99.99
2019-01-28T06:09:35.787Z,99.99
2019-01-28T06:10:35.533Z,99.99
2019-01-28T06:11:35.769Z,99.99
2019-01-28T06:12:35.762Z,99.99
2019-01-28T06:13:35.755Z,99.99
2019-01-28T06:14:36.874Z,99.99
2019-01-28T06:15:35.722Z,99.99
2019-01-28T06:16:35.717Z,99.99
2019-01-28T06:17:41.372Z,99.99
2019-01-28T06:18:35.708Z,99.99
2019-01-28T06:19:35.682Z,99.99
2019-01-28T06:20:35.683Z,99.99
2019-01-28T06:21:35.664Z,99.99
2019-01-28T06:22:35.651Z,99.99
2019-01-28T06:23:35.649Z,99.99
2019-01-28T06:24:35.392Z,99.99
2019-01-28T06:25:35.381Z,99.99
2019-01-28T06:26:35.621Z,99.99
2019-01-28T06:27:35.353Z,99.99
2019-01-28T06:28:35.600Z,99.99
2019-01-28T06:29:35.586Z,99.99
2019-01-28T06:30:35.571Z,99.99
2019-01-28T06:31:35.319Z,99.99
2019-01-28T06:32:35.564Z,99.99
2019-01-28T06:33:35.299Z,99.99
2019-01-28T06:34:35.533Z,99.99
2019-01-28T06:35:35.285Z,99.99
2019-01-28T06:36:35.526Z,99.99
2019-01-28T06:37:35.651Z,99.99
2019-01-28T06:38:35.491Z,99.99
2019-01-28T06:39:36.843Z,99.99
2019-01-28T06:40:35.227Z,99.99
2019-01-28T06:41:35.470Z,99.99
2019-01-28T06:42:35.454Z,99.99
2019-01-28T06:43:35.200Z,99.99
2019-01-28T06:44:35.169Z,99.99
2019-01-28T06:45:35.170Z,99.99
2019-01-28T06:46:35.414Z,99.99
2019-01-28T06:47:35.394Z,99.99
2019-01-28T06:48:35.142Z,99.99
2019-01-28T06:49:35.142Z,99.99
2019-01-28T06:50:35.373Z,99.99
2019-01-28T06:51:35.353Z,99.99
2019-01-28T06:52:35.350Z,99.99
2019-01-28T06:53:35.333Z,99.99
2019-01-28T06:54:35.322Z,99.99
2019-01-28T06:55:35.328Z,99.99
2019-01-28T06:56:35.306Z,99.99
2019-01-28T06:57:35.045Z,99.99
2019-01-28T06:58:35.281Z,99.99
2019-01-28T06:59:35.269Z,99.99
2019-01-28T07:00:35.256Z,99.99
2019-01-28T07:01:35.005Z,99.99
2019-01-28T07:02:35.246Z,99.99
2019-01-28T07:03:35.227Z,99.99
2019-01-28T07:04:34.976Z,99.99
2019-01-28T07:05:34.959Z,99.99
2019-01-28T07:06:35.206Z,99.99
2019-01-28T07:07:35.183Z,99.99
2019-01-28T07:08:34.921Z,99.99
2019-01-28T07:09:35.168Z,99.99
2019-01-28T07:10:35.155Z,99.99
2019-01-28T07:11:35.153Z,99.99
2019-01-28T07:12:35.144Z,99.99
2019-01-28T07:13:34.879Z,99.99
2019-01-28T07:14:35.114Z,99.99
2019-01-28T07:15:35.096Z,99.99
2019-01-28T07:16:34.836Z,99.99
2019-01-28T07:17:35.093Z,99.99
2019-01-28T07:18:35.069Z,99.99
2019-01-28T07:19:34.814Z,99.99
2019-01-28T07:20:35.074Z,99.99
2019-01-28T07:21:35.030Z,99.99
2019-01-28T07:22:35.034Z,99.99
2019-01-28T07:23:35.021Z,99.99
2019-01-28T07:24:34.747Z,99.99
2019-01-28T07:25:35.027Z,99.99
2019-01-28T07:26:34.981Z,99.99
2019-01-28T07:27:34.986Z,99.99
2019-01-28T07:28:34.970Z,99.99
2019-01-28T07:29:34.954Z,99.99
2019-01-28T07:30:34.940Z,99.99
2019-01-28T07:31:34.685Z,99.99
2019-01-28T07:32:34.682Z,99.99
2019-01-28T07:33:34.678Z,99.99
2019-01-28T07:34:34.899Z,99.99
2019-01-28T07:35:34.895Z,99.99
2019-01-28T07:36:34.882Z,99.99
2019-01-28T07:37:34.628Z,99.99
2019-01-28T07:38:34.624Z,99.99
2019-01-28T07:39:34.845Z,99.99
2019-01-28T07:40:34.608Z,99.99
2019-01-28T07:41:34.828Z,99.99
2019-01-28T07:42:34.813Z,99.99
2019-01-28T07:43:34.577Z,99.99
2019-01-28T07:44:34.796Z,99.99
2019-01-28T07:45:34.852Z,99.99
2019-01-28T07:46:34.785Z,99.99
2019-01-28T07:47:34.548Z,99.99
2019-01-28T07:48:34.539Z,99.99
2019-01-28T07:49:34.747Z,99.99
2019-01-28T07:50:34.503Z,99.99
2019-01-28T07:51:34.724Z,99.99
2019-01-28T07:52:34.720Z,99.99
2019-01-28T07:53:34.705Z,99.99
2019-01-28T07:54:34.702Z,99.99
2019-01-28T07:55:34.457Z,99.99
2019-01-28T07:56:34.696Z,99.99
2019-01-28T07:57:34.681Z,99.99
2019-01-28T07:58:34.431Z,99.99
2019-01-28T07:59:34.417Z,99.99
2019-01-28T08:00:34.408Z,99.99
2019-01-28T08:01:34.399Z,99.99
2019-01-28T08:02:34.639Z,99.99
2019-01-28T08:03:34.621Z,99.99
2019-01-28T08:04:34.366Z,99.99
2019-01-28T08:05:34.625Z,99.99
2019-01-28T08:06:34.359Z,99.99
2019-01-28T08:07:34.584Z,99.99
2019-01-28T08:08:34.611Z,99.99
2019-01-28T08:09:34.568Z,99.99
2019-01-28T08:10:34.556Z,99.99
2019-01-28T08:11:34.552Z,99.99
2019-01-28T08:12:34.550Z,99.99
2019-01-28T08:13:34.549Z,99.99
2019-01-28T08:14:34.516Z,99.99
2019-01-28T08:15:34.520Z,99.99
2019-01-28T08:16:34.510Z,99.99
2019-01-28T08:17:34.490Z,99.99
2019-01-28T08:18:34.223Z,99.99
2019-01-28T08:19:34.480Z,99.99
2019-01-28T08:20:34.467Z,99.99
2019-01-28T08:21:34.464Z,99.99
2019-01-28T08:22:34.432Z,99.99
2019-01-28T08:23:34.421Z,99.99
2019-01-28T08:24:34.163Z,99.99
2019-01-28T08:25:34.433Z,99.99
2019-01-28T08:26:34.421Z,99.99
2019-01-28T08:27:35.178Z,99.99
2019-01-28T08:28:39.083Z,99.99
2019-01-28T08:29:35.042Z,99.99
2019-01-28T08:30:34.121Z,99.99
2019-01-28T08:31:34.362Z,99.99
2019-01-28T08:32:34.086Z,99.99
2019-01-28T08:33:34.372Z,99.99
2019-01-28T08:34:34.339Z,99.99
2019-01-28T08:35:34.310Z,99.99
2019-01-28T08:36:34.310Z,99.99
2019-01-28T08:37:34.304Z,99.99
2019-01-28T08:38:34.296Z,99.99
2019-01-28T08:39:34.048Z,99.99
2019-01-28T08:40:34.024Z,99.99
2019-01-28T08:41:34.247Z,99.99
2019-01-28T08:42:34.251Z,99.99
2019-01-28T08:43:33.991Z,99.99
2019-01-28T08:44:33.976Z,99.99
2019-01-28T08:45:34.222Z,99.99
2019-01-28T08:46:34.214Z,99.99
2019-01-28T08:47:34.199Z,99.99
2019-01-28T08:48:34.197Z,99.99
2019-01-28T08:49:33.941Z,99.99
2019-01-28T08:50:33.923Z,99.99
2019-01-28T08:51:33.917Z,99.99
2019-01-28T08:52:33.966Z,99.99
2019-01-28T08:53:33.899Z,99.99
2019-01-28T08:54:34.142Z,99.39
2019-01-28T08:55:34.126Z,99.2
2019-01-28T08:56:34.116Z,98.44
2019-01-28T08:57:34.111Z,96.45
2019-01-28T08:58:33.854Z,96.26
2019-01-28T08:59:33.844Z,95.69
2019-01-28T09:00:33.858Z,96.55
2019-01-28T09:01:33.833Z,97.31
2019-01-28T09:02:34.109Z,96.64
2019-01-28T09:03:34.068Z,96.83
2019-01-28T09:04:34.052Z,97.59
2019-01-28T09:05:34.047Z,98.16
2019-01-28T09:06:33.793Z,96.73
2019-01-28T09:07:34.035Z,96.64
2019-01-28T09:08:33.776Z,97.21
2019-01-28T09:09:34.264Z,97.31
2019-01-28T09:10:34.017Z,96.17
2019-01-28T09:11:33.744Z,95.5
2019-01-28T09:12:33.985Z,94.84
2019-01-28T09:13:33.730Z,95.31
2019-01-28T09:14:33.967Z,95.22
2019-01-28T09:15:33.725Z,95.41
2019-01-28T09:16:33.954Z,95.03
2019-01-28T09:17:33.700Z,94.84
2019-01-28T09:18:33.944Z,94.37
2019-01-28T09:19:33.928Z,93.51
2019-01-28T09:20:33.927Z,93.8
2019-01-28T09:21:33.669Z,94.65
2019-01-28T09:22:33.904Z,93.8
2019-01-28T09:23:33.663Z,94.37
2019-01-28T09:24:33.648Z,94.84
2019-01-28T09:25:33.903Z,94.65
2019-01-28T09:26:33.615Z,94.84
2019-01-28T09:27:33.857Z,93.8
2019-01-28T09:28:33.607Z,92.76
2019-01-28T09:29:33.594Z,93.41
2019-01-28T09:30:33.839Z,94.84
2019-01-28T09:31:33.826Z,94.65
2019-01-28T09:32:33.827Z,95.5
2019-01-28T09:33:33.810Z,93.61
2019-01-28T09:34:33.553Z,94.37
2019-01-28T09:35:33.540Z,94.37
2019-01-28T09:36:33.541Z,94.56
2019-01-28T09:37:33.536Z,93.8
2019-01-28T09:38:33.533Z,93.7
2019-01-28T09:39:33.910Z,93.8
2019-01-28T09:40:33.508Z,93.8
2019-01-28T09:41:38.091Z,94.56
2019-01-28T09:42:33.488Z,93.89
2019-01-28T09:43:33.753Z,93.7
2019-01-28T09:44:33.735Z,94.56
2019-01-28T09:45:33.518Z,94.65
2019-01-28T09:46:33.697Z,94.37
2019-01-28T09:47:33.688Z,95.6
2019-01-28T09:48:36.655Z,95.98
2019-01-28T09:49:33.696Z,97.12
2019-01-28T09:50:33.671Z,95.69
2019-01-28T09:51:33.413Z,94.74
2019-01-28T09:52:33.421Z,94.46
2019-01-28T09:53:33.654Z,93.13
2019-01-28T09:54:33.386Z,93.23
2019-01-28T09:55:33.619Z,93.04
2019-01-28T09:56:33.622Z,93.84
2019-01-28T09:57:33.611Z,94.7
2019-01-28T09:58:33.606Z,93.27
2019-01-28T09:59:33.588Z,91.66
2019-01-28T10:00:33.348Z,91.56
2019-01-28T10:01:33.581Z,92.23
2019-01-28T10:02:33.317Z,92.42
2019-01-28T10:03:33.309Z,91.56
2019-01-28T10:04:33.550Z,92.42
2019-01-28T10:05:33.538Z,92.42
2019-01-28T10:06:33.288Z,91.09
2019-01-28T10:07:33.295Z,90.43
2019-01-28T10:08:33.277Z,90.33
2019-01-28T10:09:34.313Z,91.47
2019-01-28T10:10:33.259Z,90.9
2019-01-28T10:11:33.489Z,90.9
2019-01-28T10:12:34.598Z,91.19
2019-01-28T10:13:33.477Z,91.47
2019-01-28T10:14:33.490Z,91.56
2019-01-28T10:15:33.471Z,92.9
2019-01-28T10:16:33.213Z,92.52
2019-01-28T10:17:33.213Z,91.85
2019-01-28T10:18:33.458Z,90.62
2019-01-28T10:19:33.190Z,91.09
2019-01-28T10:20:33.442Z,92.52
2019-01-28T10:21:33.426Z,92.99
2019-01-28T10:22:33.418Z,93.27
2019-01-28T10:23:33.422Z,92.33
2019-01-28T10:24:33.147Z,92.42
2019-01-28T10:25:33.386Z,93.27
2019-01-28T10:26:33.389Z,93.23
2019-01-28T10:27:33.364Z,92.8
2019-01-28T10:28:33.127Z,93.61
2019-01-28T10:29:33.350Z,94.65
2019-01-28T10:30:33.336Z,94.18
2019-01-28T10:31:33.333Z,94.56
2019-01-28T10:32:38.486Z,95.88
2019-01-28T10:33:33.316Z,96.45
2019-01-28T10:34:33.313Z,95.41
2019-01-28T10:35:33.301Z,96.17
2019-01-28T10:36:36.702Z,96.64
2019-01-28T10:37:33.060Z,95.98
2019-01-28T10:38:33.279Z,96.73
2019-01-28T10:39:33.276Z,97.59
2019-01-28T10:40:33.282Z,97.69
2019-01-28T10:41:33.252Z,97.69
2019-01-28T10:42:33.258Z,98.35
2019-01-28T10:43:33.245Z,98.07
2019-01-28T10:44:33.253Z,97.78
2019-01-28T10:45:33.223Z,97.5
2019-01-28T10:46:33.243Z,96.83
2019-01-28T10:47:33.209Z,96.36
2019-01-28T10:48:32.959Z,97.21
2019-01-28T10:49:33.205Z,97.31
2019-01-28T10:50:33.176Z,96.73
2019-01-28T10:51:33.188Z,95.98
2019-01-28T10:52:33.160Z,97.4
2019-01-28T10:53:33.159Z,98.63
2019-01-28T10:54:32.905Z,97.88
2019-01-28T10:55:33.131Z,96.83
2019-01-28T10:56:33.124Z,97.78
2019-01-28T10:57:33.129Z,97.59
2019-01-28T10:58:32.857Z,97.69
2019-01-28T10:59:32.849Z,97.97
2019-01-28T11:00:33.094Z,97.78
2019-01-28T11:01:33.081Z,98.25
2019-01-28T11:02:33.073Z,99.68
2019-01-28T11:03:33.071Z,99.49
2019-01-28T11:04:33.057Z,99.87
2019-01-28T11:05:33.300Z,97.69
2019-01-28T11:06:32.787Z,97.02
2019-01-28T11:07:33.042Z,98.16
2019-01-28T11:08:32.772Z,98.25
2019-01-28T11:09:33.153Z,99.2
2019-01-28T11:10:33.181Z,97.88
2019-01-28T11:11:33.110Z,97.78
2019-01-28T11:12:32.876Z,98.16
2019-01-28T11:13:33.100Z,98.25
2019-01-28T11:14:33.098Z,98.82
2019-01-28T11:15:32.800Z,98.44
2019-01-28T11:16:33.028Z,98.25
2019-01-28T11:17:32.842Z,98.16
2019-01-28T11:18:32.955Z,98.16
2019-01-28T11:19:34.806Z,98.44
2019-01-28T11:20:33.156Z,98.44
2019-01-28T11:21:32.971Z,97.97
2019-01-28T11:22:33.129Z,97.5
2019-01-28T11:23:34.674Z,98.07
2019-01-28T11:24:32.760Z,98.16
2019-01-28T11:25:32.738Z,97.88
2019-01-28T11:26:33.110Z,96.64
2019-01-28T11:27:33.057Z,97.12
2019-01-28T11:28:33.021Z,97.31
2019-01-28T11:29:32.859Z,96.64
2019-01-28T11:30:32.967Z,97.31
2019-01-28T11:31:32.942Z,96.73
2019-01-28T11:32:32.629Z,97.4
2019-01-28T11:33:32.955Z,97.59
2019-01-28T11:34:32.908Z,98.25
2019-01-28T11:35:33.042Z,96.92
2019-01-28T11:36:32.952Z,97.02
2019-01-28T11:37:33.102Z,96.73
2019-01-28T11:38:32.844Z,97.88
2019-01-28T11:39:32.942Z,97.12
2019-01-28T11:40:33.025Z,96.17
2019-01-28T11:41:32.488Z,96.92
2019-01-28T11:42:33.075Z,96.08
2019-01-28T11:43:32.690Z,95.22
2019-01-28T11:44:32.725Z,94.56
2019-01-28T11:45:32.470Z,95.46
2019-01-28T11:46:32.801Z,95.93
2019-01-28T11:47:32.507Z,94.7
2019-01-28T11:48:33.099Z,94.32
2019-01-28T11:49:32.759Z,96.73
2019-01-28T11:50:32.667Z,97.02
2019-01-28T11:51:32.661Z,96.08
2019-01-28T11:52:32.656Z,93.99
2019-01-28T11:53:32.637Z,93.7
2019-01-28T11:54:32.645Z,94.74
2019-01-28T11:55:32.631Z,95.41
2019-01-28T11:56:32.613Z,95.31
2019-01-28T11:57:32.613Z,93.99
2019-01-28T11:58:32.602Z,94.37
2019-01-28T11:59:32.614Z,95.03
2019-01-28T12:00:32.341Z,95.79
2019-01-28T12:01:32.574Z,95.41
2019-01-28T12:02:36.909Z,94.37
2019-01-28T12:03:32.571Z,94.65
2019-01-28T12:04:32.311Z,96.64
2019-01-28T12:05:32.538Z,95.98
2019-01-28T12:06:32.542Z,96.17
2019-01-28T12:07:32.538Z,96.36
2019-01-28T12:08:32.573Z,96.17
2019-01-28T12:09:32.503Z,96.45
2019-01-28T12:10:33.051Z,98.44
2019-01-28T12:11:32.266Z,97.69
2019-01-28T12:12:32.481Z,97.02
2019-01-28T12:13:32.558Z,96.92
2019-01-28T12:14:32.463Z,96.55
2019-01-28T12:15:32.210Z,96.26
2019-01-28T12:16:32.201Z,96.36
2019-01-28T12:17:32.441Z,98.63
2019-01-28T12:18:32.185Z,98.44
2019-01-28T12:19:32.176Z,98.25
2019-01-28T12:20:32.419Z,98.35
2019-01-28T12:21:32.397Z,98.16
2019-01-28T12:22:32.398Z,98.25
2019-01-28T12:23:37.066Z,98.44
2019-01-28T12:24:32.377Z,98.63
2019-01-28T12:25:32.370Z,97.97
2019-01-28T12:26:32.370Z,98.63
2019-01-28T12:27:32.165Z,98.92
2019-01-28T12:28:32.139Z,98.92
2019-01-28T12:29:32.334Z,99.49
2019-01-28T12:30:32.327Z,98.92
2019-01-28T12:31:32.070Z,98.35
2019-01-28T12:32:32.314Z,97.02
2019-01-28T12:33:32.050Z,97.69
2019-01-28T12:34:32.431Z,98.07
2019-01-28T12:35:32.048Z,99.49
2019-01-28T12:36:32.274Z,99.68
2019-01-28T12:37:32.266Z,99.99
2019-01-28T12:38:32.253Z,99.99
2019-01-28T12:39:32.256Z,99.99
2019-01-28T12:40:32.241Z,99.99
2019-01-28T12:41:32.234Z,99.99
2019-01-28T12:42:31.970Z,99.99
2019-01-28T12:43:32.225Z,99.99
2019-01-28T12:44:32.204Z,99.99
2019-01-28T12:45:31.964Z,99.99
2019-01-28T12:46:32.190Z,99.99
2019-01-28T12:47:32.177Z,99.99
2019-01-28T12:48:32.171Z,99.99
2019-01-28T12:49:32.153Z,99.99
2019-01-28T12:50:32.152Z,99.99
2019-01-28T12:51:32.155Z,99.99
2019-01-28T12:52:32.132Z,99.99
2019-01-28T12:53:32.132Z,99.99